Time;durP1;ratioP1;P1;durP2;ratioP2;P2;SDS_P1;SDS_P2;PMS_P1;PMS_P2;Temp;Humidity;BMP_temperature;BMP_pressure;BME280_temperature;BME280_humidity;BME280_pressure;Samples;Min_cycle;Max_cycle;Signal;HPM_P1;HPM_P2
2021/04/27 00:01:54;;;;;;;10.93;5.10;;;;;;;4.38;71.46;95614.53;5059121;28;20271;-68
2021/04/27 00:04:20;;;;;;;8.67;4.73;;;;;;;4.39;71.75;95615.31;5058601;28;20201;-68
2021/04/27 00:06:47;;;;;;;10.53;5.03;;;;;;;4.22;71.89;95612.78;5057830;28;20674;-68
2021/04/27 00:09:14;;;;;;;11.37;4.80;;;;;;;4.09;72.72;95602.78;5058976;28;20225;-68
2021/04/27 00:11:40;;;;;;;8.40;4.40;;;;;;;4.05;72.57;95611.88;5058130;28;20217;-68
2021/04/27 00:14:08;;;;;;;8.07;4.27;;;;;;;4.02;73.10;95603.53;5059071;28;20212;-69
2021/04/27 00:16:34;;;;;;;9.87;4.53;;;;;;;4.06;72.33;95608.28;5057676;28;20693;-68
2021/04/27 00:19:00;;;;;;;11.47;4.40;;;;;;;4.17;72.35;95602.81;5058623;28;20229;-69
2021/04/27 00:21:27;;;;;;;11.30;4.40;;;;;;;4.23;71.64;95600.41;5057793;28;20732;-69
2021/04/27 00:23:53;;;;;;;9.20;4.37;;;;;;;4.11;71.27;95603.44;5058592;28;20204;-68
2021/04/27 00:26:19;;;;;;;11.43;4.70;;;;;;;4.27;70.92;95595.72;5057806;28;20234;-68
2021/04/27 00:28:45;;;;;;;10.30;4.90;;;;;;;4.26;70.77;95601.88;5057930;28;20224;-68
2021/04/27 00:31:11;;;;;;;9.07;4.67;;;;;;;4.33;70.33;95600.31;5058318;28;20247;-68
2021/04/27 00:33:38;;;;;;;11.10;5.00;;;;;;;4.16;70.91;95600.38;5058226;28;20303;-69
2021/04/27 00:36:05;;;;;;;9.70;4.80;;;;;;;4.03;71.24;95595.56;5057052;28;20204;-69
2021/04/27 00:38:32;;;;;;;9.33;4.77;;;;;;;4.10;70.76;95593.97;5058199;28;20220;-68
2021/04/27 00:40:58;;;;;;;10.23;4.60;;;;;;;4.17;72.06;95589.78;5058036;28;20826;-68
2021/04/27 00:43:25;;;;;;;12.33;4.70;;;;;;;4.20;71.85;95591.25;5057626;28;20822;-68
2021/04/27 00:45:51;;;;;;;9.10;5.00;;;;;;;4.03;72.19;95590.34;5057116;28;20763;-68
2021/04/27 00:48:17;;;;;;;10.30;4.50;;;;;;;4.06;70.98;95584.84;5058170;28;20224;-68
2021/04/27 00:50:44;;;;;;;8.87;4.67;;;;;;;4.04;70.23;95578.13;5057334;28;20205;-69
2021/04/27 00:53:10;;;;;;;11.00;4.60;;;;;;;4.12;71.28;95572.97;5057610;28;21336;-69
2021/04/27 00:55:36;;;;;;;9.67;4.47;;;;;;;4.09;71.05;95576.69;5057487;28;20193;-68
2021/04/27 00:58:03;;;;;;;9.10;4.30;;;;;;;4.21;69.64;95575.47;5057938;28;20256;-69
2021/04/27 01:00:33;;;;;;;9.53;4.30;;;;;;;4.21;69.57;95575.47;5058085;28;20201;-69
2021/04/27 01:02:59;;;;;;;7.57;4.00;;;;;;;4.09;69.73;95566.28;5057393;28;20211;-68
2021/04/27 01:05:27;;;;;;;9.37;4.53;;;;;;;3.99;70.61;95573.38;5056814;28;20196;-69
2021/04/27 01:08:00;;;;;;;8.33;4.20;;;;;;;3.89;70.30;95569.25;5057020;28;20254;-68
2021/04/27 01:10:33;;;;;;;7.97;4.10;;;;;;;3.91;69.94;95567.31;5057329;28;20219;-68
2021/04/27 01:13:05;;;;;;;9.17;4.20;;;;;;;4.04;68.54;95562.50;5057427;28;20208;-69
2021/04/27 01:15:32;;;;;;;10.23;3.80;;;;;;;4.06;67.71;95563.16;5056489;28;20309;-69
2021/04/27 01:17:59;;;;;;;6.53;4.10;;;;;;;3.96;67.62;95560.66;5057165;28;20658;-68
2021/04/27 01:20:37;;;;;;;9.93;4.00;;;;;;;3.83;68.06;95552.44;5057415;28;20211;-70
2021/04/27 01:23:12;;;;;;;8.63;4.10;;;;;;;3.80;69.12;95551.91;5056874;28;20585;-68
2021/04/27 01:25:46;;;;;;;7.90;4.40;;;;;;;3.78;68.80;95556.44;5056518;28;20642;-69
2021/04/27 01:28:14;;;;;;;6.93;3.93;;;;;;;3.84;68.04;95545.44;5057121;28;20232;-68
2021/04/27 01:30:41;;;;;;;6.67;3.57;;;;;;;3.76;68.63;95547.97;5057111;28;20208;-69
2021/04/27 01:33:11;;;;;;;8.30;3.70;;;;;;;3.75;68.89;95541.94;5057078;28;20207;-68
2021/04/27 01:35:38;;;;;;;9.53;3.93;;;;;;;3.93;68.03;95545.31;5056504;28;20200;-67
2021/04/27 01:38:05;;;;;;;6.20;3.87;;;;;;;3.96;67.66;95537.19;5057328;28;20224;-69
2021/04/27 01:40:31;;;;;;;10.07;3.60;;;;;;;3.84;68.36;95541.03;5056622;28;20204;-69
2021/04/27 01:43:00;;;;;;;7.20;3.57;;;;;;;3.79;68.61;95547.66;5057283;28;20208;-67
2021/04/27 01:45:28;;;;;;;8.60;4.10;;;;;;;3.71;68.30;95540.63;5055964;28;20196;-69
2021/04/27 01:47:54;;;;;;;8.67;3.53;;;;;;;3.75;67.61;95544.53;5057061;28;20220;-69
2021/04/27 01:50:21;;;;;;;8.20;3.40;;;;;;;3.89;67.29;95537.97;5056415;28;20204;-68
2021/04/27 01:52:48;;;;;;;9.53;3.70;;;;;;;3.85;67.45;95542.66;5057176;28;20696;-69
2021/04/27 01:55:15;;;;;;;8.97;3.80;;;;;;;3.92;67.86;95540.25;5055562;28;20218;-69
2021/04/27 01:57:41;;;;;;;7.27;3.57;;;;;;;3.83;67.94;95536.81;5056543;28;20294;-69
2021/04/27 02:00:10;;;;;;;6.23;3.43;;;;;;;3.75;68.37;95541.94;5056713;28;20337;-68
2021/04/27 02:02:37;;;;;;;6.13;3.57;;;;;;;3.86;67.53;95539.09;5057038;28;20204;-68
2021/04/27 02:05:04;;;;;;;4.83;3.30;;;;;;;3.85;67.42;95539.25;5055921;28;20258;-68
2021/04/27 02:07:34;;;;;;;7.17;4.07;;;;;;;3.91;67.85;95531.63;5056199;28;20654;-68
2021/04/27 02:10:01;;;;;;;6.83;3.80;;;;;;;3.89;66.63;95528.34;5057422;28;20239;-68
2021/04/27 02:12:28;;;;;;;4.53;3.03;;;;;;;3.93;66.31;95532.28;5057199;28;20197;-68
2021/04/27 02:14:54;;;;;;;8.00;3.77;;;;;;;3.90;67.25;95530.00;5055988;28;20200;-68
2021/04/27 02:17:24;;;;;;;6.63;3.60;;;;;;;3.96;66.09;95516.34;5059515;28;20204;-69
2021/04/27 02:19:54;;;;;;;7.07;3.50;;;;;;;4.01;66.80;95516.72;5061446;28;20270;-69
2021/04/27 02:22:26;;;;;;;6.70;4.00;;;;;;;4.02;66.01;95520.97;5060738;28;20205;-68
2021/04/27 02:24:54;;;;;;;5.07;3.13;;;;;;;3.90;65.99;95519.56;5060738;28;20208;-69
2021/04/27 02:27:21;;;;;;;5.13;3.00;;;;;;;3.83;66.79;95520.34;5060090;28;20250;-68
2021/04/27 02:29:48;;;;;;;6.50;3.60;;;;;;;3.82;66.61;95519.53;5060760;28;20285;-69
2021/04/27 02:32:14;;;;;;;10.63;3.90;;;;;;;3.81;66.90;95512.69;5060194;28;20207;-68
2021/04/27 02:34:43;;;;;;;5.77;3.37;;;;;;;3.93;67.48;95508.81;5060295;28;20212;-68
2021/04/27 02:37:10;;;;;;;6.53;3.60;;;;;;;3.84;66.37;95522.78;5059882;28;20204;-69
2021/04/27 02:39:36;;;;;;;6.30;3.50;;;;;;;3.80;66.46;95518.84;5060270;28;20222;-68
2021/04/27 02:42:03;;;;;;;9.60;3.47;;;;;;;3.61;68.21;95513.03;5060655;28;20235;-69
2021/04/27 02:44:29;;;;;;;7.20;3.80;;;;;;;3.52;67.84;95518.34;5060242;28;20204;-68
2021/04/27 02:46:55;;;;;;;8.00;3.80;;;;;;;3.69;67.42;95511.31;5055657;28;20290;-69
2021/04/27 02:49:21;;;;;;;7.00;3.87;;;;;;;3.79;66.92;95504.22;5060330;28;20224;-68
2021/04/27 02:51:47;;;;;;;7.57;4.00;;;;;;;3.78;67.43;95509.56;5060174;28;20209;-70
2021/04/27 02:54:14;;;;;;;8.23;4.10;;;;;;;3.78;66.80;95497.34;5060366;28;20218;-69
2021/04/27 02:56:40;;;;;;;9.30;4.03;;;;;;;3.67;67.17;95500.22;5059185;28;20310;-68
2021/04/27 02:59:06;;;;;;;9.03;4.03;;;;;;;3.67;66.93;95496.81;5060267;28;21107;-68
2021/04/27 03:01:34;;;;;;;10.40;4.30;;;;;;;3.59;68.34;95493.31;5059991;28;20231;-68
2021/04/27 03:04:00;;;;;;;8.83;4.43;;;;;;;3.62;68.02;95487.81;5057767;28;20555;-68
2021/04/27 03:06:26;;;;;;;9.57;4.30;;;;;;;3.71;67.71;95488.50;5059066;28;20227;-69
2021/04/27 03:08:52;;;;;;;8.67;4.30;;;;;;;3.72;68.31;95491.94;5059856;28;20221;-68
2021/04/27 03:11:19;;;;;;;11.53;4.77;;;;;;;3.62;68.83;95492.03;5059517;28;20214;-68
2021/04/27 03:13:45;;;;;;;10.90;4.20;;;;;;;3.71;67.81;95485.09;5060085;28;20212;-69
2021/04/27 03:16:11;;;;;;;8.53;4.70;;;;;;;3.66;68.43;95487.34;5059187;28;20196;-68
2021/04/27 03:18:37;;;;;;;9.53;4.70;;;;;;;3.70;68.44;95494.72;5058949;28;20232;-69
2021/04/27 03:21:03;;;;;;;9.10;4.30;;;;;;;3.56;69.13;95494.44;5060441;28;20200;-68
2021/04/27 03:23:30;;;;;;;8.30;4.53;;;;;;;3.56;68.64;95498.84;5059644;28;20201;-68
2021/04/27 03:25:56;;;;;;;16.17;4.93;;;;;;;3.53;69.29;95493.94;5059071;28;20239;-69
2021/04/27 03:28:23;;;;;;;7.47;4.53;;;;;;;3.36;68.64;95494.78;5058237;28;20294;-68
2021/04/27 03:30:49;;;;;;;10.57;4.60;;;;;;;3.34;69.06;95502.75;5059913;28;20205;-68
2021/04/27 03:33:15;;;;;;;9.03;4.60;;;;;;;3.44;69.54;95502.69;5059183;28;20211;-69
2021/04/27 03:35:42;;;;;;;8.50;4.80;;;;;;;3.33;70.03;95500.31;5059105;28;20579;-68
2021/04/27 03:38:08;;;;;;;9.13;4.70;;;;;;;3.33;70.31;95495.09;5058753;28;20224;-68
2021/04/27 03:40:34;;;;;;;8.50;4.40;;;;;;;3.32;69.44;95496.06;5059335;28;20200;-70
2021/04/27 03:43:00;;;;;;;11.23;4.50;;;;;;;3.28;69.26;95485.13;5058791;28;20675;-69
2021/04/27 03:45:35;;;;;;;7.53;4.23;;;;;;;3.37;69.23;95494.63;5058889;28;20243;-68
2021/04/27 03:48:01;;;;;;;10.47;4.67;;;;;;;3.31;70.17;95494.41;5058854;28;20212;-69
2021/04/27 03:50:28;;;;;;;7.17;4.27;;;;;;;3.27;70.36;95491.31;5059173;28;20211;-69
2021/04/27 03:52:53;;;;;;;6.43;4.13;;;;;;;3.26;70.67;95491.44;5059281;28;20204;-68
2021/04/27 03:55:19;;;;;;;7.80;4.70;;;;;;;3.10;71.55;95497.34;5058275;28;20232;-67
2021/04/27 03:57:45;;;;;;;8.47;4.63;;;;;;;3.11;71.66;95483.38;5058701;28;20254;-68
2021/04/27 04:00:13;;;;;;;8.63;4.57;;;;;;;2.98;72.57;95489.09;5059212;28;20575;-68
2021/04/27 04:02:39;;;;;;;10.10;5.23;;;;;;;2.89;72.23;95483.03;5058991;28;20265;-67
2021/04/27 04:05:06;;;;;;;8.33;5.00;;;;;;;2.73;73.31;95493.25;5058070;28;20215;-70
2021/04/27 04:07:32;;;;;;;13.60;5.33;;;;;;;2.56;73.50;95494.06;5058335;28;20234;-68
2021/04/27 04:09:58;;;;;;;9.47;5.10;;;;;;;2.45;74.45;95499.47;5058958;28;20243;-68
2021/04/27 04:12:24;;;;;;;8.97;5.07;;;;;;;2.46;74.83;95501.09;5058565;28;20377;-68
2021/04/27 04:14:50;;;;;;;7.57;5.03;;;;;;;2.52;74.51;95499.69;5058573;28;21105;-69
2021/04/27 04:17:16;;;;;;;10.87;5.20;;;;;;;2.44;74.61;95507.41;5058177;28;20192;-70
2021/04/27 04:19:43;;;;;;;10.90;5.20;;;;;;;2.51;74.14;95498.88;5058172;28;20205;-70
2021/04/27 04:22:09;;;;;;;9.33;5.17;;;;;;;2.52;75.64;95494.50;5059249;28;20212;-68
2021/04/27 04:24:35;;;;;;;11.70;5.17;;;;;;;2.61;75.38;95497.06;5058394;28;20212;-68
2021/04/27 04:27:01;;;;;;;10.07;5.17;;;;;;;2.42;75.88;95504.97;5057716;28;20228;-70
2021/04/27 04:29:27;;;;;;;8.20;5.23;;;;;;;2.37;76.63;95502.94;5057612;28;20221;-71
2021/04/27 04:31:53;;;;;;;9.20;4.90;;;;;;;2.31;75.95;95493.94;5058172;28;20212;-68
2021/04/27 04:34:20;;;;;;;14.33;5.20;;;;;;;2.40;78.00;95494.88;5058683;28;20195;-68
2021/04/27 04:36:48;;;;;;;12.37;5.00;;;;;;;2.40;77.83;95493.88;5057102;28;20326;-68
2021/04/27 04:39:14;;;;;;;12.77;5.70;;;;;;;2.58;77.55;95486.94;5055917;28;20239;-69
2021/04/27 04:41:40;;;;;;;9.43;5.27;;;;;;;2.61;75.55;95494.44;5057358;28;20211;-71
2021/04/27 04:44:06;;;;;;;10.53;5.10;;;;;;;2.62;75.65;95492.66;5058408;28;20212;-70
2021/04/27 04:46:33;;;;;;;9.63;5.40;;;;;;;2.71;76.35;95497.81;5056291;28;20625;-69
2021/04/27 04:48:59;;;;;;;10.57;5.13;;;;;;;2.36;77.79;95509.13;5058111;28;20227;-67
2021/04/27 04:51:25;;;;;;;8.80;5.13;;;;;;;2.26;78.55;95500.56;5057536;28;20250;-67
2021/04/27 04:53:52;;;;;;;9.97;5.20;;;;;;;2.37;78.83;95495.13;5057556;28;20214;-67
2021/04/27 04:56:19;;;;;;;12.27;5.73;;;;;;;2.57;77.74;95494.88;5056365;28;20704;-69
2021/04/27 04:58:45;;;;;;;11.07;5.37;;;;;;;2.75;76.41;95495.72;5057723;28;20228;-68
2021/04/27 05:01:11;;;;;;;10.37;5.37;;;;;;;2.76;76.31;95490.38;5057720;28;20211;-69
2021/04/27 05:03:38;;;;;;;9.63;4.70;;;;;;;2.88;76.07;95486.59;5057799;28;20247;-68
2021/04/27 05:06:05;;;;;;;8.87;5.30;;;;;;;2.88;76.23;95496.16;5056620;28;20232;-69
2021/04/27 05:08:34;;;;;;;9.83;5.07;;;;;;;3.09;75.87;95490.53;5057059;28;20297;-69
2021/04/27 05:11:01;;;;;;;8.27;5.00;;;;;;;3.25;74.86;95489.81;5057906;28;20223;-68
2021/04/27 05:13:27;;;;;;;11.13;5.30;;;;;;;3.32;75.11;95485.63;5057052;28;20208;-70
2021/04/27 05:15:53;;;;;;;9.40;5.20;;;;;;;3.31;74.48;95487.44;5056603;28;20208;-69
2021/04/27 05:18:19;;;;;;;11.30;5.20;;;;;;;3.50;74.03;95486.41;5058222;28;20274;-68
2021/04/27 05:20:46;;;;;;;11.83;5.13;;;;;;;3.50;75.30;95484.66;5056515;28;20250;-67
2021/04/27 05:23:12;;;;;;;10.23;5.13;;;;;;;3.71;74.62;95490.31;5057945;28;20208;-67
2021/04/27 05:25:38;;;;;;;11.03;5.37;;;;;;;3.81;71.40;95484.00;5056382;28;20197;-67
2021/04/27 05:28:05;;;;;;;11.77;5.07;;;;;;;3.95;71.75;95482.63;5057151;28;20217;-69
2021/04/27 05:30:31;;;;;;;18.20;5.73;;;;;;;4.02;70.67;95483.63;5056782;28;20258;-68
2021/04/27 05:32:57;;;;;;;12.87;5.37;;;;;;;4.07;72.80;95490.00;5057178;28;20204;-67
2021/04/27 05:35:23;;;;;;;11.40;5.23;;;;;;;4.01;73.42;95484.59;5056112;28;20204;-68
2021/04/27 05:37:49;;;;;;;10.73;5.13;;;;;;;4.27;73.47;95480.97;5056722;28;20569;-68
2021/04/27 05:40:15;;;;;;;12.83;5.63;;;;;;;4.22;73.47;95481.44;5057483;28;20211;-70
2021/04/27 05:42:41;;;;;;;14.83;5.77;;;;;;;4.22;73.10;95483.25;5056997;28;20210;-70
2021/04/27 05:45:10;;;;;;;11.10;5.13;;;;;;;4.37;71.88;95484.28;5056369;28;20212;-67
2021/04/27 05:47:36;;;;;;;16.07;5.60;;;;;;;4.45;71.14;95484.31;5056086;28;20228;-67
2021/04/27 05:50:04;;;;;;;11.83;5.10;;;;;;;4.52;70.25;95480.06;5056955;28;20215;-67
2021/04/27 05:52:30;;;;;;;13.37;5.43;;;;;;;4.56;70.46;95481.41;5056718;28;20204;-68
2021/04/27 05:54:55;;;;;;;12.60;5.67;;;;;;;4.75;71.43;95481.09;5057068;28;20320;-69
2021/04/27 05:57:21;;;;;;;8.23;5.00;;;;;;;4.74;69.53;95487.31;5055353;28;20297;-68
2021/04/27 05:59:47;;;;;;;10.50;4.90;;;;;;;4.87;69.69;95480.66;5056740;28;20628;-69
2021/04/27 06:02:14;;;;;;;9.07;5.20;;;;;;;4.93;70.21;95485.25;5055029;28;20330;-68
2021/04/27 06:04:40;;;;;;;9.67;5.63;;;;;;;5.09;70.51;95475.63;5056367;28;20219;-67
2021/04/27 06:07:08;;;;;;;13.57;5.37;;;;;;;5.18;68.76;95468.59;5056291;28;20224;-69
2021/04/27 06:09:34;;;;;;;11.07;4.87;;;;;;;5.21;68.04;95471.72;5056669;28;20265;-67
2021/04/27 06:12:01;;;;;;;9.97;5.20;;;;;;;5.28;67.86;95467.44;5057026;28;20211;-68
2021/04/27 06:14:27;;;;;;;10.27;4.87;;;;;;;5.37;67.22;95468.28;5056589;28;20204;-68
2021/04/27 06:16:53;;;;;;;11.27;5.67;;;;;;;5.46;68.95;95476.75;5055799;28;20200;-67
2021/04/27 06:19:20;;;;;;;9.17;4.87;;;;;;;5.67;67.41;95474.44;5056642;28;20216;-69
2021/04/27 06:21:46;;;;;;;9.70;4.77;;;;;;;5.63;69.50;95480.19;5057431;28;20205;-68
2021/04/27 06:24:13;;;;;;;8.87;4.87;;;;;;;5.80;68.39;95477.38;5056219;28;20201;-70
2021/04/27 06:26:39;;;;;;;9.90;5.23;;;;;;;5.85;68.33;95482.13;5056173;28;20221;-68
2021/04/27 06:29:05;;;;;;;14.60;5.13;;;;;;;5.94;67.69;95476.72;5057003;28;20228;-68
2021/04/27 06:31:31;;;;;;;11.47;5.13;;;;;;;6.03;67.34;95477.50;5056225;28;20437;-67
2021/04/27 06:33:58;;;;;;;13.23;5.33;;;;;;;5.84;65.04;95477.88;5056264;28;20215;-70
2021/04/27 06:36:25;;;;;;;11.07;5.30;;;;;;;5.90;65.86;95472.78;5056673;28;20200;-67
2021/04/27 06:38:51;;;;;;;10.27;5.50;;;;;;;6.04;65.71;95472.91;5056012;28;20243;-68
2021/04/27 06:41:17;;;;;;;11.40;5.70;;;;;;;6.18;65.47;95477.44;5056697;28;20623;-68
2021/04/27 06:43:44;;;;;;;9.23;5.60;;;;;;;6.27;64.84;95471.19;5056216;28;20208;-68
2021/04/27 06:46:10;;;;;;;12.37;5.20;;;;;;;6.49;65.82;95461.78;5055411;28;20228;-68
2021/04/27 06:48:36;;;;;;;14.30;5.50;;;;;;;6.61;65.86;95466.47;5056300;28;20224;-68
2021/04/27 06:51:03;;;;;;;10.60;5.67;;;;;;;6.73;65.07;95463.31;5056370;28;20212;-68
2021/04/27 06:53:31;;;;;;;13.77;5.50;;;;;;;6.90;65.05;95464.03;5055900;28;20266;-69
2021/04/27 06:55:57;;;;;;;15.60;5.60;;;;;;;6.85;63.46;95461.13;5055661;28;20216;-68
2021/04/27 06:58:23;;;;;;;10.80;5.73;;;;;;;6.90;64.20;95449.13;5055997;28;20216;-67
2021/04/27 07:00:49;;;;;;;10.20;5.80;;;;;;;7.11;66.35;95451.91;5055876;28;20200;-67
2021/04/27 07:03:16;;;;;;;11.70;5.90;;;;;;;7.32;65.03;95455.53;5055779;28;20200;-68
2021/04/27 07:05:43;;;;;;;11.90;6.10;;;;;;;7.45;62.50;95450.50;5059443;28;20204;-68
2021/04/27 07:08:09;;;;;;;10.97;5.67;;;;;;;7.37;64.14;95453.19;5060342;28;20318;-68
2021/04/27 07:10:36;;;;;;;10.03;6.10;;;;;;;7.64;63.61;95450.00;5059230;28;21046;-70
2021/04/27 07:13:02;;;;;;;12.40;5.83;;;;;;;7.66;60.84;95447.19;5059843;28;20219;-69
2021/04/27 07:15:28;;;;;;;9.10;5.63;;;;;;;7.78;63.40;95443.97;5058767;28;20200;-67
2021/04/27 07:17:55;;;;;;;12.40;5.60;;;;;;;7.71;61.67;95443.03;5059761;28;20230;-69
2021/04/27 07:20:21;;;;;;;12.80;5.90;;;;;;;7.91;62.72;95438.91;5059398;28;20212;-68
2021/04/27 07:22:47;;;;;;;11.03;5.70;;;;;;;7.86;62.34;95437.81;5059665;28;20626;-68
2021/04/27 07:25:15;;;;;;;12.77;5.90;;;;;;;7.99;63.58;95444.06;5059020;28;20721;-70
2021/04/27 07:27:42;;;;;;;12.80;6.33;;;;;;;7.96;61.10;95439.19;5059099;28;20224;-68
2021/04/27 07:30:11;;;;;;;11.03;5.80;;;;;;;8.06;62.61;95437.91;5057773;28;20267;-68
2021/04/27 07:32:37;;;;;;;11.13;6.17;;;;;;;8.39;62.11;95433.97;5058061;28;20208;-68
2021/04/27 07:35:03;;;;;;;13.60;6.00;;;;;;;8.50;62.36;95430.84;5057862;28;20215;-68
2021/04/27 07:37:30;;;;;;;13.43;5.83;;;;;;;8.78;59.62;95427.38;5059050;28;20217;-68
2021/04/27 07:39:56;;;;;;;13.83;6.10;;;;;;;8.72;58.66;95429.91;5060029;28;20209;-67
2021/04/27 07:42:22;;;;;;;10.90;5.93;;;;;;;8.91;61.59;95421.41;5058893;28;20258;-68
2021/04/27 07:44:49;;;;;;;12.13;5.70;;;;;;;8.89;60.87;95424.22;5059043;28;20224;-68
2021/04/27 07:47:15;;;;;;;11.47;6.03;;;;;;;9.17;61.77;95422.50;5058271;28;20232;-69
2021/04/27 07:49:41;;;;;;;12.13;6.47;;;;;;;9.28;62.26;95430.69;5059381;28;20777;-69
2021/04/27 07:52:07;;;;;;;11.40;6.33;;;;;;;9.45;57.46;95426.00;5058859;28;20280;-68
2021/04/27 07:54:33;;;;;;;11.30;6.03;;;;;;;9.51;60.57;95425.22;5059095;28;20200;-69
2021/04/27 07:57:00;;;;;;;9.80;5.90;;;;;;;9.50;57.11;95424.41;5057866;28;20205;-69
2021/04/27 07:59:26;;;;;;;12.73;6.00;;;;;;;9.22;59.24;95428.00;5058198;28;20774;-70
2021/04/27 08:01:52;;;;;;;9.33;5.67;;;;;;;9.37;61.63;95423.50;5059078;28;20200;-68
2021/04/27 08:04:19;;;;;;;8.83;5.67;;;;;;;9.35;57.88;95428.13;5055555;28;20200;-69
2021/04/27 08:06:45;;;;;;;10.20;5.97;;;;;;;9.56;59.18;95422.81;5057469;28;21235;-68
2021/04/27 08:09:11;;;;;;;12.50;5.90;;;;;;;9.84;57.98;95427.13;5057948;28;20236;-69
2021/04/27 08:11:39;;;;;;;11.00;6.27;;;;;;;9.86;56.37;95420.66;5058010;28;20250;-69
2021/04/27 08:14:06;;;;;;;13.53;6.20;;;;;;;9.82;58.83;95429.91;5057697;28;20220;-70
2021/04/27 08:16:32;;;;;;;9.33;5.90;;;;;;;9.71;58.92;95421.72;5056856;28;20788;-68
2021/04/27 08:18:59;;;;;;;10.90;6.33;;;;;;;9.80;57.47;95426.69;5058839;28;20228;-68
2021/04/27 08:21:26;;;;;;;12.43;6.43;;;;;;;9.81;57.30;95420.41;5058259;28;20207;-69
2021/04/27 08:23:52;;;;;;;13.00;6.23;;;;;;;9.89;56.51;95424.69;5058313;28;20205;-68
2021/04/27 08:26:18;;;;;;;12.10;6.57;;;;;;;9.95;58.82;95419.50;5057541;28;20282;-68
2021/04/27 08:28:44;;;;;;;12.50;6.97;;;;;;;10.40;57.68;95416.34;5058714;28;20224;-67
2021/04/27 08:31:11;;;;;;;11.63;6.83;;;;;;;10.65;59.16;95410.34;5057856;28;20721;-69
2021/04/27 08:33:37;;;;;;;13.83;6.57;;;;;;;10.64;55.40;95415.81;5058155;28;20818;-69
2021/04/27 08:36:05;;;;;;;17.17;7.00;;;;;;;10.48;54.96;95416.19;5057647;28;20200;-68
2021/04/27 08:38:32;;;;;;;10.70;6.67;;;;;;;10.60;56.25;95412.78;5057546;28;20243;-69
2021/04/27 08:40:58;;;;;;;12.60;6.47;;;;;;;11.02;54.85;95415.97;5058568;28;20689;-68
2021/04/27 08:43:24;;;;;;;20.93;6.80;;;;;;;10.59;53.71;95415.59;5057814;28;20208;-67
2021/04/27 08:45:51;;;;;;;15.03;7.13;;;;;;;10.82;57.11;95408.19;5056455;28;21020;-69
2021/04/27 08:48:17;;;;;;;16.13;6.63;;;;;;;11.42;54.81;95415.00;5057081;28;20227;-68
2021/04/27 08:50:44;;;;;;;13.27;6.67;;;;;;;11.34;56.12;95409.94;5059020;28;20201;-68
2021/04/27 08:53:12;;;;;;;11.53;6.37;;;;;;;11.39;55.38;95410.16;5057178;28;20204;-69
2021/04/27 08:55:39;;;;;;;13.03;6.63;;;;;;;11.39;54.94;95402.22;5056282;28;20996;-70
2021/04/27 08:58:06;;;;;;;15.23;6.87;;;;;;;11.56;51.97;95406.91;5057637;28;20223;-67
2021/04/27 09:00:32;;;;;;;12.60;6.83;;;;;;;11.32;54.97;95404.03;5057257;28;20334;-67
2021/04/27 09:03:01;;;;;;;16.90;7.10;;;;;;;11.63;57.41;95405.09;5051184;28;20261;-70
2021/04/27 09:05:29;;;;;;;13.00;6.77;;;;;;;11.71;52.74;95409.34;5056193;28;20204;-69
2021/04/27 09:07:57;;;;;;;14.10;6.70;;;;;;;11.47;58.64;95401.19;5056518;28;20225;-67
2021/04/27 09:10:27;;;;;;;13.27;6.73;;;;;;;11.59;52.80;95397.78;5056539;28;20296;-70
2021/04/27 09:12:55;;;;;;;13.23;6.80;;;;;;;11.83;53.58;95397.19;5056713;28;20861;-70
2021/04/27 09:15:27;;;;;;;14.30;6.87;;;;;;;11.86;56.38;95399.41;5056549;28;20601;-67
2021/04/27 09:17:53;;;;;;;14.93;7.10;;;;;;;12.20;57.04;95398.09;5056604;28;20327;-69
2021/04/27 09:20:19;;;;;;;12.07;6.60;;;;;;;11.83;55.34;95405.09;5056399;28;20620;-69
2021/04/27 09:22:46;;;;;;;12.20;7.82;;;;;;;11.72;52.61;95398.59;5056829;28;21102;-70
2021/04/27 09:25:13;;;;;;;11.83;7.10;;;;;;;11.98;52.26;95395.94;5055574;28;20204;-68
2021/04/27 09:27:44;;;;;;;12.17;7.27;;;;;;;12.08;51.54;95403.41;5055881;28;20319;-69
2021/04/27 09:30:14;;;;;;;17.02;7.65;;;;;;;12.34;53.08;95391.78;5057056;28;20213;-72
2021/04/27 09:32:42;;;;;;;17.15;6.53;;;;;;;12.80;50.09;95392.41;5056960;28;20205;-69
2021/04/27 09:35:33;;;;;;;16.42;7.45;;;;;;;12.84;50.22;95388.31;5055832;28;20755;-69
2021/04/27 09:38:15;;;;;;;11.70;6.97;;;;;;;13.03;54.75;95382.16;5056500;28;20224;-69
2021/04/27 09:40:54;;;;;;;13.30;6.88;;;;;;;13.09;50.05;95373.38;5056428;28;20201;-68
2021/04/27 09:43:24;;;;;;;11.50;6.68;;;;;;;13.18;51.22;95377.38;5056682;28;20204;-69
2021/04/27 09:45:52;;;;;;;20.90;7.43;;;;;;;13.15;49.55;95373.34;5055669;28;20623;-68
2021/04/27 09:48:32;;;;;;;11.05;6.88;;;;;;;13.16;51.81;95368.84;5055903;28;20705;-69
2021/04/27 09:51:22;;;;;;;15.18;6.72;;;;;;;13.41;50.90;95363.38;5056615;28;20211;-70
2021/04/27 09:53:51;;;;;;;13.23;7.07;;;;;;;13.25;48.98;95359.63;5056687;28;20220;-69
2021/04/27 09:56:33;;;;;;;12.32;7.28;;;;;;;13.43;50.41;95356.03;5055561;28;20294;-68
2021/04/27 09:59:06;;;;;;;13.13;6.45;;;;;;;13.66;54.49;95358.91;5053222;28;20323;-68
2021/04/27 10:01:33;;;;;;;12.07;7.15;;;;;;;13.87;48.42;95363.78;5057920;28;20196;-70
2021/04/27 10:04:00;;;;;;;16.98;7.70;;;;;;;13.72;50.18;95360.69;5054880;28;20204;-68
2021/04/27 10:06:27;;;;;;;22.00;7.18;;;;;;;14.03;49.77;95356.09;5055776;28;20282;-69
2021/04/27 10:08:54;;;;;;;13.30;6.70;;;;;;;13.95;48.61;95355.59;5056801;28;20327;-68
2021/04/27 10:11:22;;;;;;;11.38;7.15;;;;;;;14.13;50.63;95343.19;5057155;28;20216;-69
2021/04/27 10:13:48;;;;;;;10.23;6.78;;;;;;;13.98;48.73;95339.25;5056559;28;20220;-69
2021/04/27 10:16:15;;;;;;;11.88;7.18;;;;;;;14.39;49.29;95342.91;5055750;28;20201;-68
2021/04/27 10:18:42;;;;;;;12.30;7.13;;;;;;;14.44;48.42;95336.94;5056655;28;20231;-68
2021/04/27 10:21:11;;;;;;;15.25;6.90;;;;;;;14.63;46.93;95334.84;5057024;28;20204;-72
2021/04/27 10:23:38;;;;;;;12.15;7.00;;;;;;;14.66;49.70;95323.81;5056783;28;20701;-68
2021/04/27 10:26:04;;;;;;;18.02;6.90;;;;;;;14.70;44.98;95332.09;5055453;28;20211;-70
2021/04/27 10:28:57;;;;;;;12.45;6.15;;;;;;;14.72;45.39;95322.91;5055829;28;20224;-70
2021/04/27 10:31:26;;;;;;;10.80;6.75;;;;;;;14.44;45.09;95329.00;5056024;28;20200;-68
2021/04/27 10:34:01;;;;;;;15.43;6.97;;;;;;;14.50;44.93;95323.59;5056171;28;20677;-68
2021/04/27 10:36:28;;;;;;;10.88;6.35;;;;;;;14.86;45.38;95316.38;5055096;28;20210;-69
2021/04/27 10:38:56;;;;;;;9.20;5.63;;;;;;;15.28;43.25;95318.06;5059291;28;20220;-69
2021/04/27 10:41:25;;;;;;;11.40;6.45;;;;;;;14.93;43.35;95314.47;5060336;28;20784;-71
2021/04/27 10:43:54;;;;;;;14.80;6.55;;;;;;;15.16;44.83;95309.22;5060188;28;20279;-68
2021/04/27 10:46:59;;;;;;;12.50;6.40;;;;;;;15.22;43.80;95313.63;5059514;28;20224;-70
2021/04/27 10:49:35;;;;;;;9.63;6.32;;;;;;;15.28;43.71;95310.09;5060458;28;20280;-68
2021/04/27 10:52:03;;;;;;;9.68;6.32;;;;;;;15.25;40.70;95315.84;5060170;28;20269;-70
2021/04/27 10:54:32;;;;;;;10.75;6.60;;;;;;;15.53;42.06;95305.38;5060546;28;20739;-68
2021/04/27 10:57:17;;;;;;;11.48;6.40;;;;;;;15.40;37.83;95302.94;5059491;28;20192;-68
2021/04/27 10:59:58;;;;;;;15.68;6.18;;;;;;;15.32;39.51;95304.13;5059278;28;20659;-69
2021/04/27 11:02:27;;;;;;;10.77;6.18;;;;;;;15.60;39.16;95301.59;5060095;28;20242;-68
2021/04/27 11:04:56;;;;;;;13.57;5.60;;;;;;;16.01;40.52;95294.31;5059748;28;20265;-68
2021/04/27 11:07:37;;;;;;;15.18;5.82;;;;;;;16.29;39.66;95286.44;5057961;28;20247;-70
2021/04/27 11:10:30;;;;;;;11.52;6.32;;;;;;;16.47;38.98;95290.78;5060490;28;20223;-68
2021/04/27 11:12:59;;;;;;;13.55;5.95;;;;;;;16.24;40.32;95288.97;5059123;28;20216;-71
2021/04/27 11:15:28;;;;;;;10.90;6.18;;;;;;;16.20;38.30;95285.16;5058569;28;20265;-70
2021/04/27 11:17:59;;;;;;;9.48;6.13;;;;;;;16.36;39.58;95284.47;5059339;28;20620;-68
2021/04/27 11:20:46;;;;;;;9.90;5.60;;;;;;;16.60;37.54;95283.38;5059684;28;20731;-70
2021/04/27 11:23:34;;;;;;;14.15;6.20;;;;;;;16.96;36.72;95281.13;5059362;28;20257;-69
2021/04/27 11:26:00;;;;;;;10.45;5.45;;;;;;;17.13;33.45;95288.09;5059399;28;20205;-68
2021/04/27 11:28:54;;;;;;;13.05;5.82;;;;;;;16.76;37.63;95288.75;5059358;28;20964;-68
2021/04/27 11:31:20;;;;;;;9.88;5.82;;;;;;;16.28;38.00;95279.53;5059383;28;20204;-69
2021/04/27 11:33:56;;;;;;;12.25;5.97;;;;;;;16.55;36.61;95280.59;5059435;28;20201;-68
2021/04/27 11:36:35;;;;;;;12.82;5.97;;;;;;;16.55;41.84;95280.59;5058293;28;20204;-68
2021/04/27 11:39:10;;;;;;;11.52;6.85;;;;;;;16.18;39.37;95273.94;5059421;28;20232;-68